Time;durP1;ratioP1;P1;durP2;ratioP2;P2;SDS_P1;SDS_P2;PMS_P1;PMS_P2;Temp;Humidity;BMP_temperature;BMP_pressure;BME280_temperature;BME280_humidity;BME280_pressure;Samples;Min_cycle;Max_cycle;Signal;HPM_P1;HPM_P2
2023/09/10 00:00:53;;;;;;;7.13;4.68;;;20.40;99.90;;;20.05;100.00;100966.75;4184582;28;20024;-76
2023/09/10 00:02:54;;;;;;;5.30;4.40;;;20.40;99.90;;;20.09;100.00;100973.34;4201726;28;20021;-76
2023/09/10 00:04:55;;;;;;;5.40;4.47;;;20.40;99.90;;;20.12;100.00;100967.56;4187364;28;20480;-76
2023/09/10 00:06:56;;;;;;;6.18;4.93;;;20.50;99.90;;;20.19;100.00;100967.53;4195900;28;20021;-76
2023/09/10 00:08:57;;;;;;;7.97;5.32;;;20.50;99.90;;;20.22;100.00;100969.81;4191811;28;20507;-76
2023/09/10 00:10:58;;;;;;;9.02;5.65;;;20.60;99.90;;;20.26;100.00;100973.72;4187330;28;20396;-76
2023/09/10 00:12:59;;;;;;;10.93;5.72;;;20.60;99.90;;;20.27;100.00;100972.69;4187425;28;20039;-76
2023/09/10 00:15:00;;;;;;;8.02;4.90;;;20.60;99.90;;;20.27;100.00;100986.91;4194792;28;20032;-76
2023/09/10 00:17:01;;;;;;;12.32;5.60;;;20.60;99.90;;;20.28;100.00;100977.81;4187322;28;20075;-76
2023/09/10 00:19:02;;;;;;;5.72;4.97;;;20.70;99.90;;;20.30;100.00;100972.25;4186897;28;20435;-76
2023/09/10 00:21:03;;;;;;;7.72;5.05;;;20.70;99.90;;;20.31;100.00;100969.34;4201245;28;20098;-76
2023/09/10 00:23:04;;;;;;;4.90;4.40;;;20.70;99.90;;;20.34;100.00;100970.78;4190921;28;20014;-76
2023/09/10 00:25:06;;;;;;;5.68;4.72;;;20.70;99.90;;;20.32;100.00;100968.31;4197270;28;20091;-76
2023/09/10 00:27:06;;;;;;;5.68;4.50;;;20.70;99.90;;;20.36;100.00;100974.91;4185790;28;20024;-76
2023/09/10 00:29:07;;;;;;;5.63;4.88;;;20.70;99.90;;;20.35;100.00;100970.56;4191696;28;20029;-76
2023/09/10 00:31:08;;;;;;;6.80;4.80;;;20.70;99.90;;;20.33;100.00;100969.16;4203620;28;20052;-76
2023/09/10 00:33:09;;;;;;;4.88;4.43;;;20.70;99.90;;;20.28;100.00;100971.66;4202086;28;20499;-76
2023/09/10 00:35:10;;;;;;;6.63;5.00;;;20.70;99.90;;;20.25;100.00;100972.06;4191487;28;20454;-76
2023/09/10 00:37:12;;;;;;;8.35;5.50;;;20.60;99.90;;;20.19;100.00;100968.34;4186985;28;20435;-76
2023/09/10 00:39:14;;;;;;;4.97;4.47;;;20.60;99.90;;;20.15;100.00;100980.53;4187073;28;20028;-76
2023/09/10 00:41:14;;;;;;;7.07;5.10;;;20.50;99.90;;;20.12;100.00;100977.47;4187089;28;20373;-76
2023/09/10 00:43:15;;;;;;;5.68;5.00;;;20.50;99.90;;;20.06;100.00;100968.41;4196871;28;20024;-76
2023/09/10 00:45:16;;;;;;;7.20;5.25;;;20.40;99.90;;;19.99;100.00;100962.25;4187268;28;20032;-76
2023/09/10 00:47:17;;;;;;;6.22;5.53;;;20.40;99.90;;;19.96;100.00;100961.84;4192771;28;20024;-76
2023/09/10 00:49:19;;;;;;;5.28;4.78;;;20.40;99.90;;;19.96;100.00;100962.69;4185448;28;20033;-75
2023/09/10 00:51:20;;;;;;;5.38;4.88;;;20.30;99.90;;;19.95;100.00;100968.25;4199369;28;20033;-76
2023/09/10 00:53:22;;;;;;;7.75;5.38;;;20.30;99.90;;;19.95;100.00;100968.25;4193961;28;20107;-76
2023/09/10 00:55:26;;;;;;;5.93;5.25;;;20.30;99.90;;;19.92;100.00;100957.97;4186726;28;20029;-76
2023/09/10 00:57:27;;;;;;;7.35;5.28;;;20.30;99.90;;;19.91;100.00;100967.03;4196507;28;20032;-76
2023/09/10 00:59:29;;;;;;;6.03;5.50;;;20.30;99.90;;;19.89;100.00;100967.25;4185316;28;20040;-76
2023/09/10 01:01:30;;;;;;;7.38;5.90;;;20.30;99.90;;;19.87;100.00;100962.09;4190099;28;20054;-76
2023/09/10 01:03:38;;;;;;;7.65;5.90;;;20.30;99.90;;;19.87;100.00;100961.28;4189946;28;20051;-76
2023/09/10 01:05:39;;;;;;;6.38;5.78;;;20.30;99.90;;;19.86;100.00;100959.66;4185240;28;20089;-76
2023/09/10 01:07:40;;;;;;;7.80;5.90;;;20.30;99.90;;;19.85;100.00;100956.16;4186601;28;20025;-76
2023/09/10 01:09:41;;;;;;;6.20;5.22;;;20.30;99.90;;;19.82;100.00;100953.88;4186613;28;20037;-76
2023/09/10 01:11:59;;;;;;;6.90;6.18;;;20.20;99.90;;;19.82;100.00;100956.56;4186525;28;20020;-76
2023/09/10 01:14:23;;;;;;;7.95;6.10;;;20.20;99.90;;;19.75;100.00;100954.94;4187822;28;20029;-76
2023/09/10 01:17:11;;;;;;;7.93;5.63;;;20.10;99.90;;;19.65;100.00;100952.69;4186589;28;20396;-76
2023/09/10 01:19:32;;;;;;;11.20;6.15;;;20.10;99.90;;;19.64;100.00;100950.22;4199688;28;20063;-76
2023/09/10 01:22:03;;;;;;;8.27;5.88;;;20.00;99.90;;;19.62;100.00;100954.97;4191581;28;20049;-76
2023/09/10 01:24:34;;;;;;;6.20;5.60;;;20.00;99.90;;;19.60;100.00;100957.03;4197429;28;20427;-76
2023/09/10 01:26:40;;;;;;;7.25;5.80;;;20.00;99.90;;;19.56;100.00;100951.25;4197941;28;20021;-76
2023/09/10 01:28:41;;;;;;;8.10;6.00;;;20.00;99.90;;;19.52;100.00;100957.25;4186218;28;20028;-75
2023/09/10 01:30:42;;;;;;;7.10;5.70;;;20.00;99.90;;;19.49;100.00;100953.16;4185078;28;20079;-76
2023/09/10 01:32:49;;;;;;;7.25;6.53;;;19.90;99.90;;;19.46;100.00;100950.88;4194726;28;20028;-76
2023/09/10 01:35:07;;;;;;;6.78;6.07;;;19.90;99.90;;;19.43;100.00;100950.47;4189773;28;20531;-76
2023/09/10 01:37:25;;;;;;;11.38;6.22;;;19.90;99.90;;;19.39;100.00;100943.84;4196529;28;20049;-76
2023/09/10 01:39:38;;;;;;;9.75;6.25;;;19.80;99.90;;;19.38;100.00;100945.72;4179347;28;20028;-76
2023/09/10 01:41:40;;;;;;;7.15;6.20;;;19.80;99.90;;;19.41;100.00;100945.34;4184790;28;20043;-76
2023/09/10 01:43:43;;;;;;;6.15;5.53;;;19.80;99.90;;;19.48;100.00;100942.63;4194069;28;20025;-76
2023/09/10 01:45:44;;;;;;;6.45;5.68;;;19.90;99.90;;;19.55;100.00;100948.81;4192107;28;20392;-76
2023/09/10 01:47:46;;;;;;;8.52;6.63;;;19.90;99.90;;;19.59;100.00;100950.84;4195383;28;20029;-76
2023/09/10 01:49:47;;;;;;;10.70;7.05;;;20.00;99.90;;;19.63;100.00;100952.06;4202078;28;20039;-76
2023/09/10 01:51:48;;;;;;;9.82;6.68;;;20.00;99.90;;;19.63;100.00;100959.28;4197403;28;20051;-76
2023/09/10 01:53:49;;;;;;;7.47;6.45;;;20.00;99.90;;;19.60;100.00;100957.03;4192676;28;20112;-76
2023/09/10 01:55:50;;;;;;;11.23;6.90;;;20.00;99.90;;;19.61;100.00;100969.38;4194730;28;20045;-76
2023/09/10 01:57:54;;;;;;;13.88;7.22;;;20.00;99.90;;;19.64;100.00;100995.72;4185707;28;20040;-76
2023/09/10 01:59:55;;;;;;;7.60;6.90;;;20.00;99.90;;;19.66;100.00;101021.25;4184391;28;20029;-76
2023/09/10 02:01:56;;;;;;;7.80;7.00;;;20.10;99.90;;;19.73;100.00;101029.28;4185713;28;20447;-76
2023/09/10 02:03:57;;;;;;;9.57;7.47;;;20.10;99.90;;;19.83;100.00;101024.31;4189857;28;20028;-75
2023/09/10 02:06:00;;;;;;;7.85;7.00;;;20.20;99.90;;;19.89;100.00;101026.16;4185520;28;20029;-76
2023/09/10 02:08:01;;;;;;;8.63;7.15;;;20.30;99.90;;;19.94;100.00;101038.91;4188158;28;20027;-76
2023/09/10 02:10:02;;;;;;;11.48;6.68;;;20.30;99.90;;;19.95;100.00;101046.72;4185588;28;20481;-76
2023/09/10 02:12:04;;;;;;;8.70;6.47;;;20.30;99.90;;;19.94;100.00;101047.75;4185563;28;20032;-76
2023/09/10 02:14:04;;;;;;;8.25;6.40;;;20.30;99.90;;;19.95;100.00;101046.72;4199880;28;20020;-76
2023/09/10 02:16:05;;;;;;;8.00;6.65;;;20.40;99.90;;;19.99;100.00;101055.16;4195267;28;20028;-76
2023/09/10 02:18:06;;;;;;;6.45;5.85;;;20.40;99.90;;;20.05;100.00;101044.44;4185502;28;20028;-76
2023/09/10 02:20:10;;;;;;;6.28;5.35;;;20.40;99.90;;;20.13;100.00;101038.84;4185207;28;20515;-75
2023/09/10 02:22:11;;;;;;;;;;;20.50;99.90;;;20.10;100.00;101039.25;4185666;28;20029;-76
2023/09/10 02:24:12;;;;;;;7.65;5.35;;;20.50;99.90;;;20.16;100.00;101029.59;4196778;28;19943;-76
2023/09/10 02:26:12;;;;;;;8.85;5.63;;;20.60;99.90;;;20.16;100.00;101030.38;4192291;28;20031;-76
2023/09/10 02:28:13;;;;;;;7.05;5.68;;;20.60;99.90;;;20.17;100.00;101034.72;4200160;28;20082;-76
2023/09/10 02:30:14;;;;;;;9.90;6.70;;;20.60;99.90;;;20.22;100.00;101037.56;4188318;28;20039;-76
2023/09/10 02:32:15;;;;;;;7.15;6.22;;;20.60;99.90;;;20.27;100.00;101031.63;4185750;28;20037;-76
2023/09/10 02:34:16;;;;;;;8.35;6.35;;;20.60;99.90;;;20.31;100.00;101043.53;4200239;28;20020;-76
2023/09/10 02:36:17;;;;;;;7.60;5.20;;;20.70;99.90;;;20.36;100.00;101038.38;4188434;28;20036;-76
2023/09/10 02:38:18;;;;;;;6.93;5.55;;;20.70;99.90;;;20.38;100.00;101037.13;4185016;28;20037;-76
2023/09/10 02:40:18;;;;;;;11.52;7.30;;;20.70;99.90;;;20.40;100.00;101034.22;4185219;28;20033;-76
2023/09/10 02:42:19;;;;;;;7.70;6.13;;;20.80;99.90;;;20.40;100.00;101034.22;4185987;28;20033;-75
2023/09/10 02:44:20;;;;;;;6.70;5.88;;;20.80;99.90;;;20.40;100.00;101032.38;4192532;28;20063;-76
2023/09/10 02:46:21;;;;;;;8.80;6.22;;;20.80;99.90;;;20.39;100.00;101030.75;4185279;28;20021;-76
2023/09/10 02:48:22;;;;;;;5.97;5.30;;;20.80;99.90;;;20.42;100.00;101037.53;4185000;28;20056;-76
2023/09/10 02:50:23;;;;;;;7.28;6.15;;;20.80;99.90;;;20.42;100.00;101045.59;4184997;28;20103;-75
2023/09/10 02:52:30;;;;;;;10.10;7.07;;;20.80;99.90;;;20.40;100.00;101034.22;4186417;28;20033;-76
2023/09/10 02:54:34;;;;;;;9.00;6.93;;;20.80;99.90;;;20.39;100.00;101022.72;4188455;28;20025;-76
2023/09/10 02:56:34;;;;;;;;;;;20.80;99.90;;;20.33;100.00;101028.09;4187775;28;20081;-76
2023/09/10 02:58:35;;;;;;;7.03;5.47;;;20.80;99.90;;;20.32;100.00;101002.31;4201653;28;19908;-76
2023/09/10 03:00:36;;;;;;;8.48;6.78;;;20.80;99.90;;;20.31;100.00;100987.28;4200338;28;20029;-76
2023/09/10 03:02:38;;;;;;;6.47;5.88;;;20.70;99.90;;;20.26;100.00;100973.72;4201601;28;20020;-76
2023/09/10 03:04:39;;;;;;;7.85;6.10;;;20.70;99.90;;;20.24;100.00;100965.88;4184650;28;20025;-76
2023/09/10 03:06:46;;;;;;;6.57;5.90;;;20.70;99.90;;;20.21;100.00;100944.88;4191544;28;20075;-76
2023/09/10 03:08:47;;;;;;;7.03;5.65;;;20.70;99.90;;;20.19;100.00;100940.75;4190018;28;20032;-76
2023/09/10 03:10:48;;;;;;;8.38;6.60;;;20.60;99.90;;;20.13;100.00;100937.06;4184893;28;20492;-76
2023/09/10 03:12:49;;;;;;;8.30;7.05;;;20.60;99.90;;;20.12;100.00;100934.59;4188275;28;20040;-76
2023/09/10 03:14:50;;;;;;;7.28;6.57;;;20.60;99.90;;;20.12;100.00;100951.50;4201601;28;20032;-76
2023/09/10 03:16:51;;;;;;;9.10;7.90;;;20.60;99.90;;;20.12;100.00;100943.47;4201490;28;20040;-76
2023/09/10 03:18:52;;;;;;;11.98;8.23;;;20.50;99.90;;;20.15;100.00;100939.53;4201072;28;20029;-76
2023/09/10 03:20:54;;;;;;;8.57;7.72;;;20.60;99.90;;;20.18;100.00;100933.75;4200242;28;20484;-76
2023/09/10 03:22:59;;;;;;;10.13;8.40;;;20.60;99.90;;;20.21;100.00;100926.13;4200345;28;20021;-76
2023/09/10 03:24:59;;;;;;;9.40;7.93;;;20.60;99.90;;;20.28;100.00;100944.88;4189314;28;20036;-76
2023/09/10 03:27:00;;;;;;;11.18;8.40;;;20.70;99.90;;;20.28;100.00;100947.53;4184732;28;20025;-76
2023/09/10 03:29:02;;;;;;;8.57;7.25;;;20.70;99.90;;;20.30;100.00;100948.16;4187759;28;20112;-76
2023/09/10 03:31:03;;;;;;;9.57;7.95;;;20.70;99.90;;;20.32;100.00;100944.22;4184873;28;20515;-76
2023/09/10 03:33:04;;;;;;;9.52;6.90;;;20.70;99.90;;;20.34;100.00;100938.63;4190900;28;20032;-76
2023/09/10 03:35:06;;;;;;;9.10;7.43;;;20.80;99.90;;;20.37;100.00;100943.56;4190181;28;20047;-76
2023/09/10 03:37:07;;;;;;;10.85;7.93;;;20.80;99.90;;;20.38;100.00;100940.69;4185553;28;20059;-76
2023/09/10 03:39:08;;;;;;;10.55;7.03;;;20.80;99.90;;;20.40;100.00;100937.75;4187927;28;20022;-76
2023/09/10 03:41:08;;;;;;;10.57;7.32;;;20.80;99.90;;;20.40;100.00;100937.75;4187999;28;20476;-76
2023/09/10 03:43:10;;;;;;;7.75;6.95;;;20.80;99.90;;;20.36;100.00;100931.22;4193839;28;20032;-76
2023/09/10 03:45:11;;;;;;;8.85;7.15;;;20.80;99.90;;;20.33;100.00;100945.03;4170108;28;20041;-76
2023/09/10 03:47:11;;;;;;;8.35;6.88;;;20.80;99.90;;;20.29;100.00;100946.50;4192743;28;20017;-76
2023/09/10 03:49:12;;;;;;;8.25;6.78;;;20.80;99.90;;;20.22;100.00;100949.16;4204289;28;20020;-76
2023/09/10 03:51:13;;;;;;;9.73;7.07;;;20.70;99.90;;;20.17;100.00;100948.16;4190793;28;20068;-76
2023/09/10 03:53:14;;;;;;;15.38;7.47;;;20.60;99.90;;;20.09;100.00;100945.75;4191387;28;20515;-75
2023/09/10 03:55:15;;;;;;;8.73;6.80;;;20.60;99.90;;;20.02;100.00;100944.94;4193428;28;20020;-76
2023/09/10 03:57:16;;;;;;;6.85;6.05;;;20.50;99.90;;;19.93;100.00;100956.91;4204262;28;20020;-76
2023/09/10 03:59:18;;;;;;;6.90;6.30;;;20.40;99.90;;;19.84;100.00;100953.66;4204113;28;20059;-76
2023/09/10 04:01:19;;;;;;;7.93;6.72;;;20.30;99.90;;;19.75;100.00;100945.03;4187202;28;20044;-76
2023/09/10 04:03:20;;;;;;;9.15;6.85;;;20.20;99.90;;;19.71;100.00;100957.19;4188971;28;20026;-75
2023/09/10 04:05:21;;;;;;;8.35;6.53;;;20.20;99.90;;;19.65;100.00;100954.56;4194560;28;20475;-76
2023/09/10 04:07:21;;;;;;;8.43;7.25;;;20.10;99.90;;;19.63;100.00;100952.06;4186423;28;20024;-76
2023/09/10 04:09:24;;;;;;;8.18;6.45;;;20.10;99.90;;;19.61;100.00;100948.78;4187823;28;20109;-76
2023/09/10 04:11:25;;;;;;;7.07;6.38;;;20.10;99.90;;;19.55;100.00;100949.63;4198748;28;20025;-76
2023/09/10 04:13:26;;;;;;;13.93;7.80;;;20.00;99.90;;;19.49;100.00;100938.94;4194808;28;20088;-76
2023/09/10 04:15:26;;;;;;;10.55;6.95;;;19.90;99.90;;;19.41;100.00;100931.97;4203907;28;20112;-76
2023/09/10 04:17:28;;;;;;;8.55;7.50;;;19.90;99.90;;;19.34;100.00;100933.78;4203804;28;20024;-76
2023/09/10 04:19:29;;;;;;;8.57;6.60;;;19.80;99.90;;;19.26;100.00;100928.66;4203622;28;20042;-76
2023/09/10 04:21:30;;;;;;;7.57;6.50;;;19.80;99.90;;;19.19;100.00;100927.84;4203894;28;20154;-76
2023/09/10 04:23:31;;;;;;;8.82;6.57;;;19.70;99.90;;;19.13;100.00;100934.84;4191523;28;20031;-76
2023/09/10 04:25:32;;;;;;;7.53;6.82;;;19.60;99.90;;;19.11;100.00;100939.59;4185923;28;20064;-76
2023/09/10 04:27:32;;;;;;;9.30;7.75;;;19.60;99.90;;;19.08;100.00;100941.84;4191346;28;20369;-76
2023/09/10 04:29:34;;;;;;;8.65;7.28;;;19.50;99.90;;;19.09;100.00;100940.81;4203689;28;20028;-76
2023/09/10 04:31:43;;;;;;;11.52;7.70;;;19.50;99.90;;;19.10;100.00;100939.78;4203713;28;20075;-76
2023/09/10 04:33:44;;;;;;;11.20;8.15;;;19.50;99.90;;;19.10;100.00;100937.09;4203173;28;20021;-76
2023/09/10 04:35:57;;;;;;;11.93;6.93;;;19.50;99.90;;;19.12;100.00;100937.72;4198434;28;20103;-76
2023/09/10 04:37:57;;;;;;;7.88;7.07;;;19.60;99.90;;;19.12;100.00;100932.38;4186811;28;20113;-76
2023/09/10 04:40:01;;;;;;;7.85;6.90;;;19.60;99.90;;;19.17;100.00;100940.63;4198375;28;20086;-76
2023/09/10 04:42:02;;;;;;;7.60;6.75;;;19.60;99.90;;;19.18;100.00;100939.56;4198651;28;20048;-76
2023/09/10 04:44:03;;;;;;;8.38;7.28;;;19.60;99.90;;;19.20;100.00;100932.97;4202299;28;20488;-76
2023/09/10 04:46:04;;;;;;;7.63;6.20;;;19.70;99.90;;;19.20;100.00;100927.63;4186919;28;20031;-76
2023/09/10 04:48:05;;;;;;;7.43;6.70;;;19.60;99.90;;;19.21;100.00;100931.13;4198481;28;20478;-76
2023/09/10 04:50:07;;;;;;;7.97;7.18;;;19.60;99.90;;;19.22;100.00;100936.28;4199856;28;20033;-76
2023/09/10 04:52:08;;;;;;;7.65;6.85;;;19.60;99.90;;;19.24;100.00;100931.53;4186981;28;20028;-76
2023/09/10 04:54:09;;;;;;;8.30;6.13;;;19.70;99.90;;;19.26;100.00;100936.69;4186924;28;20028;-76
2023/09/10 04:56:10;;;;;;;6.93;6.32;;;19.70;99.90;;;19.27;100.00;100935.66;4186720;28;20451;-76
2023/09/10 04:58:12;;;;;;;8.15;6.22;;;19.70;99.90;;;19.29;100.00;100934.41;4202172;28;20023;-76
2023/09/10 05:00:13;;;;;;;8.88;6.38;;;19.70;99.90;;;19.31;100.00;100937.72;4185444;28;20033;-76
2023/09/10 05:02:14;;;;;;;7.43;6.65;;;19.70;99.90;;;19.35;100.00;100943.47;4195388;28;20027;-76
2023/09/10 05:04:15;;;;;;;8.13;6.80;;;19.70;99.90;;;19.35;100.00;100943.47;4186367;28;20060;-76
2023/09/10 05:06:17;;;;;;;6.75;6.05;;;19.80;99.90;;;19.41;100.00;100948.03;4185979;28;20017;-76
2023/09/10 05:08:18;;;;;;;6.45;5.82;;;19.80;99.90;;;19.45;100.00;100949.22;4191700;28;20058;-76
2023/09/10 05:10:18;;;;;;;6.97;6.28;;;19.90;99.90;;;19.47;100.00;100949.88;4203323;28;20028;-76
2023/09/10 05:12:19;;;;;;;7.35;6.15;;;19.90;99.90;;;19.46;100.00;100948.22;4189229;28;20082;-76
2023/09/10 05:14:20;;;;;;;8.48;6.53;;;19.90;99.90;;;19.35;100.00;100928.22;4185221;28;20095;-76
2023/09/10 05:16:21;;;;;;;7.60;6.60;;;19.80;99.90;;;19.39;100.00;100944.72;4192283;28;20036;-76
2023/09/10 05:18:22;;;;;;;10.75;7.50;;;19.80;99.90;;;19.36;100.00;100950.44;4202965;28;20036;-76
2023/09/10 05:20:23;;;;;;;7.45;6.75;;;19.80;99.90;;;19.27;100.00;100941.00;4202661;28;20466;-76
2023/09/10 05:22:24;;;;;;;8.60;6.90;;;19.70;99.90;;;19.30;100.00;100946.75;4202827;28;20024;-76
2023/09/10 05:24:24;;;;;;;7.78;6.97;;;19.70;99.90;;;19.29;100.00;100950.44;4202893;28;20036;-76
2023/09/10 05:26:25;;;;;;;17.35;8.02;;;19.70;99.90;;;19.23;100.00;100943.25;4202893;28;20021;-76
2023/09/10 05:28:26;;;;;;;9.30;6.97;;;19.70;99.90;;;19.20;100.00;100957.03;4198670;28;20054;-76
2023/09/10 05:30:27;;;;;;;8.07;7.13;;;19.60;99.90;;;19.15;100.00;100953.34;4187720;28;20032;-76
2023/09/10 05:32:28;;;;;;;8.10;6.72;;;19.60;99.90;;;19.14;100.00;100955.22;4190025;28;20024;-76
2023/09/10 05:34:29;;;;;;;7.75;6.95;;;19.60;99.90;;;19.10;100.00;100953.16;4185723;28;20024;-76
2023/09/10 05:36:30;;;;;;;7.72;7.00;;;19.50;99.90;;;19.06;100.00;100952.75;4188163;28;20478;-76
2023/09/10 05:38:30;;;;;;;8.18;7.22;;;19.50;99.90;;;19.03;100.00;100958.50;4201032;28;20044;-76
2023/09/10 05:40:37;;;;;;;8.07;6.60;;;19.50;99.90;;;19.01;100.00;100944.53;4186141;28;20025;-76
2023/09/10 05:42:38;;;;;;;9.23;7.38;;;19.40;99.90;;;18.93;100.00;100938.56;4184559;28;20025;-76
2023/09/10 05:44:39;;;;;;;7.78;6.45;;;19.40;99.90;;;18.92;100.00;100934.22;4196443;28;20028;-76
2023/09/10 05:46:40;;;;;;;8.88;6.88;;;19.30;99.90;;;18.89;100.00;100927.44;4202385;28;20025;-76
2023/09/10 05:48:41;;;;;;;7.60;6.15;;;19.30;99.90;;;18.86;100.00;100921.69;4197211;28;20442;-76
2023/09/10 05:50:42;;;;;;;11.50;7.35;;;19.30;99.90;;;18.85;100.00;100920.84;4185922;28;20051;-76
2023/09/10 05:52:45;;;;;;;8.95;7.15;;;19.30;99.90;;;18.84;100.00;100921.09;4185850;28;20377;-76
2023/09/10 05:54:45;;;;;;;8.93;7.35;;;19.20;99.90;;;18.81;100.00;100925.00;4199516;28;20024;-76
2023/09/10 05:56:46;;;;;;;8.38;7.53;;;19.20;99.90;;;18.79;100.00;100925.19;4185981;28;20495;-76
2023/09/10 05:58:48;;;;;;;13.70;8.25;;;19.20;99.90;;;18.75;100.00;100933.81;4185807;28;20028;-76
2023/09/10 06:00:52;;;;;;;9.68;7.60;;;19.20;99.90;;;18.75;100.00;100939.16;4194996;28;20044;-76
2023/09/10 06:02:53;;;;;;;8.63;7.32;;;19.20;99.90;;;18.75;100.00;100937.31;4185805;28;20029;-76
2023/09/10 06:04:54;;;;;;;7.82;6.78;;;19.20;99.90;;;18.78;100.00;100936.09;4187739;28;20469;-76
2023/09/10 06:06:54;;;;;;;9.13;7.32;;;19.20;99.90;;;18.78;100.00;100931.56;4194253;28;20029;-76
2023/09/10 06:08:55;;;;;;;12.05;7.72;;;19.20;99.90;;;18.85;100.00;100944.91;4195636;28;20094;-76
2023/09/10 06:10:56;;;;;;;7.90;7.10;;;19.30;99.90;;;18.91;100.00;100956.63;4186175;28;20029;-75
2023/09/10 06:12:57;;;;;;;9.13;6.40;;;19.30;99.90;;;18.94;100.00;100940.19;4184453;28;20033;-75
2023/09/10 06:14:58;;;;;;;8.75;7.25;;;19.40;99.90;;;18.99;100.00;100965.31;4175630;28;20535;-75
2023/09/10 06:16:59;;;;;;;7.38;6.68;;;19.40;99.90;;;19.00;100.00;100966.09;4188430;28;20144;-74
2023/09/10 06:19:00;;;;;;;7.25;6.55;;;19.40;99.90;;;19.00;100.00;100960.75;4197951;28;20032;-75
2023/09/10 06:21:01;;;;;;;7.43;6.72;;;19.50;99.90;;;18.99;100.00;100973.31;4184398;28;20029;-75
2023/09/10 06:23:02;;;;;;;7.47;6.60;;;19.50;99.90;;;19.02;100.00;100977.44;4191516;28;20450;-75
2023/09/10 06:25:03;;;;;;;9.27;7.55;;;19.40;99.90;;;18.99;100.00;100980.53;4185531;28;20485;-75
2023/09/10 06:27:04;;;;;;;9.07;7.40;;;19.50;99.90;;;19.03;100.00;100987.91;4184648;28;20033;-75
2023/09/10 06:29:05;;;;;;;8.27;7.43;;;19.40;99.90;;;19.05;100.00;100991.22;4184240;28;20463;-75
2023/09/10 06:31:06;;;;;;;9.65;7.60;;;19.50;99.90;;;19.07;100.00;100993.69;4185542;28;20060;-75
2023/09/10 06:33:08;;;;;;;8.65;7.53;;;19.50;99.90;;;19.06;100.00;100981.31;4185280;28;20027;-75
2023/09/10 06:35:09;;;;;;;8.55;7.63;;;19.50;99.90;;;19.08;100.00;100988.13;4188055;28;20119;-75
2023/09/10 06:37:10;;;;;;;8.80;7.72;;;19.50;99.90;;;19.11;100.00;100994.91;4198992;28;20025;-75
2023/09/10 06:39:11;;;;;;;7.57;6.88;;;19.60;99.90;;;19.12;100.00;101002.72;4183877;28;20033;-75
2023/09/10 06:41:12;;;;;;;14.63;7.35;;;19.60;99.90;;;19.12;100.00;101001.91;4201862;28;20391;-75
2023/09/10 06:43:12;;;;;;;8.85;7.65;;;19.60;99.90;;;19.16;100.00;101003.97;4188271;28;20090;-75
2023/09/10 06:45:13;;;;;;;9.50;7.20;;;19.60;99.90;;;19.19;100.00;100998.22;4185519;28;20086;-75
2023/09/10 06:47:14;;;;;;;11.15;7.32;;;19.60;99.90;;;19.26;100.00;101014.25;4199613;28;20103;-75
2023/09/10 06:49:15;;;;;;;10.40;7.95;;;19.70;99.90;;;19.32;100.00;101024.94;4190717;28;20055;-74
2023/09/10 06:51:16;;;;;;;9.18;7.18;;;19.70;99.90;;;19.35;100.00;101029.09;4196958;28;20050;-75
2023/09/10 06:53:17;;;;;;;9.00;7.63;;;19.80;99.90;;;19.41;100.00;101038.16;4201598;28;20029;-74
2023/09/10 06:55:18;;;;;;;8.32;7.53;;;19.80;99.90;;;19.45;100.00;101039.38;4201779;28;20035;-74
2023/09/10 06:57:18;;;;;;;8.30;7.07;;;19.90;99.90;;;19.48;100.00;101047.81;4191851;28;20484;-75
2023/09/10 06:59:20;;;;;;;10.00;8.10;;;19.90;99.90;;;19.49;100.00;101035.25;4185150;28;20040;-74
2023/09/10 07:01:21;;;;;;;9.63;7.25;;;19.90;99.90;;;19.60;100.00;101048.00;4200192;28;20020;-75
2023/09/10 07:03:22;;;;;;;10.45;7.72;;;20.00;99.90;;;19.76;100.00;101047.59;4183762;28;20122;-74
2023/09/10 07:05:23;;;;;;;13.07;8.48;;;20.20;99.90;;;19.92;100.00;101046.34;4191756;28;20017;-76
2023/09/10 07:07:24;;;;;;;10.70;8.20;;;20.30;99.90;;;20.04;100.00;101041.97;4186993;28;20531;-76
2023/09/10 07:09:25;;;;;;;8.77;7.32;;;20.40;99.90;;;20.15;100.00;101033.28;4184624;28;20032;-76
2023/09/10 07:11:26;;;;;;;8.85;7.53;;;20.50;99.90;;;20.28;100.00;101030.59;4190677;28;20082;-78
2023/09/10 07:13:29;;;;;;;7.20;6.50;;;20.60;99.90;;;20.36;100.00;101019.63;4187616;28;20400;-76
2023/09/10 07:15:29;;;;;;;8.02;7.00;;;20.70;99.90;;;20.44;100.00;101038.13;4199167;28;20146;-76
2023/09/10 07:17:31;;;;;;;8.07;6.00;;;20.80;99.90;;;20.53;100.00;101044.91;4187588;28;20029;-77
2023/09/10 07:19:31;;;;;;;9.30;6.63;;;20.90;99.90;;;20.60;100.00;101056.44;4187301;28;20075;-77
2023/09/10 07:21:32;;;;;;;11.63;8.13;;;21.00;99.90;;;20.66;100.00;101060.94;4187725;28;20017;-78
2023/09/10 07:23:33;;;;;;;8.85;6.97;;;21.00;99.90;;;20.88;100.00;101070.28;4195311;28;20021;-77
2023/09/10 07:25:34;;;;;;;8.75;6.95;;;21.20;99.90;;;21.14;100.00;101066.66;4188646;28;20032;-76
2023/09/10 07:27:35;;;;;;;12.38;7.65;;;21.40;99.90;;;21.36;100.00;101051.00;4198718;28;20025;-76
2023/09/10 07:29:35;;;;;;;9.23;6.40;;;21.60;99.90;;;21.65;100.00;101065.63;4189230;28;20032;-76
2023/09/10 07:31:36;;;;;;;10.27;7.20;;;21.90;99.90;;;21.81;100.00;101057.81;4187372;28;20496;-76
2023/09/10 07:33:37;;;;;;;14.98;8.15;;;22.10;99.90;;;22.00;100.00;101061.38;4186827;28;20036;-76
2023/09/10 07:35:38;;;;;;;8.30;7.20;;;22.30;99.90;;;22.25;100.00;101053.25;4194678;28;20045;-76
2023/09/10 07:37:39;;;;;;;10.63;7.72;;;22.50;99.90;;;22.42;100.00;101059.66;4196939;28;20045;-76
2023/09/10 07:39:40;;;;;;;10.73;7.97;;;22.80;99.90;;;22.39;100.00;101055.56;4187968;28;20044;-76
2023/09/10 07:41:41;;;;;;;10.40;6.90;;;22.90;99.90;;;22.46;100.00;101050.91;4187757;28;20037;-76
2023/09/10 07:43:42;;;;;;;7.82;6.93;;;23.00;99.90;;;22.55;100.00;101048.72;4191973;28;20483;-76
2023/09/10 07:45:45;;;;;;;10.95;6.80;;;23.00;99.90;;;22.70;100.00;101054.53;4198031;28;20025;-76
2023/09/10 07:47:47;;;;;;;12.85;7.70;;;23.10;99.90;;;22.74;100.00;101054.91;4192397;28;20020;-76
2023/09/10 07:49:51;;;;;;;7.78;6.50;;;23.20;99.90;;;22.98;100.00;101053.94;4188423;28;20048;-76
2023/09/10 07:51:51;;;;;;;;;;;23.40;99.90;;;23.19;100.00;101055.28;4199799;28;20025;-76
2023/09/10 07:53:52;;;;;;;8.93;6.63;;;23.60;99.90;;;23.43;100.00;101060.50;4192743;28;19912;-76
2023/09/10 07:55:53;;;;;;;7.60;6.80;;;23.80;99.90;;;23.65;100.00;101055.38;4193443;28;20028;-76
2023/09/10 07:57:54;;;;;;;10.18;6.28;;;24.10;99.90;;;23.88;100.00;101060.75;4203979;28;20080;-76
2023/09/10 07:59:55;;;;;;;8.48;6.35;;;24.20;99.90;;;24.08;100.00;101063.06;4202689;28;20032;-76
2023/09/10 08:01:55;;;;;;;8.00;6.53;;;24.40;99.90;;;24.30;100.00;101052.50;4195600;28;20020;-76
2023/09/10 08:03:56;;;;;;;9.13;6.00;;;24.60;99.90;;;24.46;100.00;101063.34;4196863;28;20035;-76
2023/09/10 08:05:57;;;;;;;9.27;6.47;;;24.70;99.90;;;24.59;100.00;101064.97;4196143;28;20029;-76
2023/09/10 08:08:02;;;;;;;8.95;6.60;;;24.80;99.90;;;24.58;100.00;101055.25;4200463;28;20029;-76
2023/09/10 08:10:04;;;;;;;10.07;6.50;;;24.90;99.90;;;24.56;100.00;101060.88;4194970;28;20020;-76
2023/09/10 08:12:05;;;;;;;10.93;6.18;;;24.90;99.90;;;24.51;100.00;101060.78;4191392;28;20510;-76
2023/09/10 08:14:06;;;;;;;11.30;6.90;;;24.90;99.90;;;24.52;100.00;101069.69;4186550;28;20036;-76
2023/09/10 08:16:10;;;;;;;8.80;6.05;;;24.90;99.90;;;24.42;100.00;101072.19;4187895;28;20037;-76
2023/09/10 08:18:12;;;;;;;7.10;6.13;;;24.90;99.90;;;24.44;100.00;101078.13;4186774;28;20463;-75
2023/09/10 08:20:13;;;;;;;8.15;6.03;;;24.90;99.90;;;24.33;100.00;101077.13;4195924;28;20032;-78
2023/09/10 08:22:14;;;;;;;7.35;6.15;;;24.80;99.90;;;24.29;100.00;101091.31;4186246;28;20502;-77